ADDS METAR Data INFO
IDs: Format: Raw Decoded Include TAF

Data at: 2335 UTC 25 Feb 2018

KRIC 252254Z 18005KT 10SM FEW100 OVC130 18/13 A2995 RMK AO2 SLP148 VIRGA NW-NE-SE T01780128
KRIC 252154Z 18008KT 10SM OVC130 19/13 A2995 RMK AO2 SLP146 VIRGA NW-NE T01940128
KRIC 252054Z 21006KT 10SM SCT110 BKN180 21/13 A2996 RMK AO2 SLP150 T02110128 53002
KRIC 251954Z 22010KT 10SM SCT120 OVC180 22/14 A2995 RMK AO2 SLP146 T02170139
KRIC 251854Z 21012KT 10SM BKN120 OVC180 21/14 A2993 RMK AO2 SLP138 T02110144
KRIC 251754Z 21008KT 10SM FEW070 BKN100 OVC180 19/14 A2995 RMK AO2 SLP147 60000 T01890139 10206 20117 58008
KRIC 251654Z 24006KT 10SM FEW028 BKN100 OVC180 16/13 A2999 RMK AO2 RAE1557 SLP160 P0000 T01610128
KRIC 251615Z 30006KT 10SM FEW008 SCT028 OVC070 14/12 A3002 RMK AO2 RAE1557 P0000 T01440122
KRIC 251554Z 32009KT 10SM -RA SCT008 BKN026 OVC033 14/13 A3002 RMK AO2 PK WND 32029/1534 WSHFT 1516 RAB48 SLP171 P0000 T01440128
KRIC 251533Z 33014G29KT 8SM FEW008 BKN026 OVC033 16/14 A3003 RMK AO2 PK WND 32029/1529 WSHFT 1516 T01610139
KRIC 251454Z 23013KT 10SM FEW040 BKN110 OVC180 21/16 A2998 RMK AO2 SLP156 T02060156 53005
KRIC 251354Z 20014KT 10SM SCT080 BKN180 18/16 A2995 RMK AO2 SLP145 T01830156
KRIC 251254Z 18004KT 6SM BR SCT090 BKN180 13/13 A2996 RMK AO2 SLP148 T01330133
KRIC 251215Z 15004KT 3SM BR SCT005 BKN180 12/12 A2996 RMK AO2 T01220122
KRIC 251211Z 15004KT 1 1/2SM BR SCT005 BKN180 12/12 A2996 RMK AO2 T01220122
KRIC 251154Z 00000KT 1/2SM R34/P6000FT FG BKN002 OVC250 12/12 A2996 RMK AO2 SLP150 T01220122 10122 20117 56012
KRIC 251054Z 00000KT 1/4SM R34/2000V2400FT FG VV002 12/12 A2997 RMK AO2 SLP153 T01220122
KRIC 251039Z 00000KT 1/4SM R34/2000V2400FT FG VV002 12/12 A2998 RMK AO2 T01220122
KRIC 251023Z 00000KT 1/4SM R34/1800V2000FT FG VV002 12/12 A2998 RMK AO2 T01220122
KRIC 251006Z 00000KT 1/4SM R34/2200V2600FT FG VV002 12/12 A2998 RMK AO2 T01220122
KRIC 250954Z 10003KT 1/4SM R34/1800V2000FT FG VV002 12/12 A2998 RMK AO2 SLP157 T01220122
KRIC 250944Z 00000KT 1/4SM R34/1800V2000FT FG VV002 12/12 A2998 RMK AO2 T01220122
KRIC 250911Z 13004KT 3/4SM R34/3000V5000FT BR VV003 12/12 A3000 RMK AO2 T01220122
KRIC 250854Z 00000KT 1 1/4SM R34/6000VP6000FT BR OVC002 12/12 A3000 RMK AO2 SLP161 T01220117 58016
KRIC 250844Z 00000KT 1 3/4SM BR OVC002 12/12 A3000 RMK AO2 T01220117
KRIC 250754Z 13003KT 4SM BR OVC002 12/12 A3001 RMK AO2 SLP167 T01220117
KRIC 250742Z 10003KT 3SM BR OVC002 12/12 A3002 RMK AO2 T01170117
KRIC 250654Z 10005KT 2SM BR OVC002 12/12 A3004 RMK AO2 SLP178 T01170117
KRIC 250619Z 09006KT 3SM BR OVC002 12/12 A3005 RMK AO2 T01220122
KRIC 250613Z 07006KT 1 1/2SM BR OVC002 12/12 A3006 RMK AO2 T01220122
KRIC 250554Z 08004KT 1/2SM R34/5000VP6000FT FG VV002 12/12 A3007 RMK AO2 SLP187 60000 T01220122 10189 20122 56006
KRIC 250528Z 06005KT 3/4SM R34/5000VP6000FT BR OVC002 12/12 A3007 RMK AO2 T01220122
KRIC 250510Z 05004KT 1 1/4SM BR OVC002 12/12 A3008 RMK AO2 T01220122
KRIC 250454Z 06005KT 2 1/2SM BR OVC003 12/12 A3007 RMK AO2 SLP189 T01220122 402440078
KRIC 250426Z 06006KT 2 1/2SM BR OVC003 13/12 A3008 RMK AO2 T01280122
KRIC 250354Z 04008KT 3SM BR OVC003 13/12 A3008 RMK AO2 SLP191 T01280122
KRIC 250254Z 03007KT 7SM OVC006 14/13 A3009 RMK AO2 SLP194 60000 T01390128 50003
KRIC 250154Z 06007KT 10SM BKN009 OVC050 14/13 A3009 RMK AO2 RAE0058 SLP195 P0000 T01440128
KRIC 250130Z 05009KT 10SM SCT009 OVC050 15/13 A3009 RMK AO2 RAE0058 P0000 T01500133
KRIC 250054Z 06009KT 10SM -RA BKN045 OVC055 16/14 A3008 RMK AO2 RAB01E15B37 SLP191 P0000 T01610144
KRIC 242354Z 05013KT 10SM OVC044 19/15 A3007 RMK AO2 RAB33E42 SLP187 P0000 60000 T01890150 10244 20189 53009
KRIC 242254Z 16004KT 10SM SCT046 BKN080 21/16 A3004 RMK AO2 SLP178 T02110161
KRIC 242154Z 18009KT 10SM BKN085 23/16 A3003 RMK AO2 SLP174 T02280161
KRIC 242054Z 25012KT 10SM SCT044 BKN075 BKN100 24/15 A3004 RMK AO2 SLP178 T02390150 56015
KRIC 241954Z 28008KT 10SM FEW045 SCT075 BKN100 24/15 A3005 RMK AO2 SLP182 T02440150
KRIC 241854Z 26011KT 10SM FEW025 SCT120 BKN250 24/15 A3006 RMK AO2 SLP185 T02390150
KRIC 241754Z 24012KT 10SM FEW025 BKN180 BKN250 23/15 A3009 RMK AO2 SLP193 T02330150 10239 20117 58024
KRIC 241654Z 22011KT 10SM BKN150 BKN250 21/16 A3012 RMK AO2 SLP203 T02110156
KRIC 241554Z 18011KT 10SM FEW090 SCT150 BKN200 19/15 A3014 RMK AO2 SLP209 T01940150
KRIC 241454Z 21007KT 10SM SCT005 SCT015 BKN150 15/14 A3016 RMK AO2 SLP217 T01500144 56003
KRIC 241435Z 20007KT 7SM SCT005 SCT015 BKN150 14/14 A3017 RMK AO2 T01440144
KRIC 241354Z 18008KT 4SM BR BKN002 OVC011 13/13 A3016 RMK AO2 SLP218 T01330133
KRIC 241351Z 19007KT 4SM BR BKN002 OVC011 13/13 A3016 RMK AO2
KRIC 241339Z 19006KT 2SM BR OVC002 13/13 A3017 RMK AO2 T01330133
KRIC 241330Z 19007KT 1 1/4SM R34/4500VP6000FT BR OVC003 13/13 A3017 RMK AO2 T01280128
KRIC 241254Z 20006KT 1/2SM R34/2200V2400FT FG VV002 12/12 A3017 RMK AO2 TWR VIS 2 SLP220 T01220122
KRIC 241154Z 18005KT 1/2SM R34/2800V5000FT FG VV002 12/12 A3016 RMK AO2 TWR VIS 2 SLP216 T01170117 10117 20083 56011